createdAt,value
2019-03-06T07:26:58.611Z,94928.44
2019-03-06T07:29:53.071Z,94930.27
2019-03-06T07:32:45.972Z,94929.25
2019-03-06T07:36:21.730Z,94933.09
2019-03-06T07:38:58.003Z,94937.91
2019-03-06T07:41:55.009Z,94936.26
2019-03-06T07:44:55.865Z,94930.52
2019-03-06T07:47:55.917Z,94934.09
2019-03-06T07:50:45.587Z,94930.31
2019-03-06T07:53:53.439Z,94932.02
2019-03-06T07:56:30.180Z,94932.53
2019-03-06T07:59:02.575Z,94934.20
2019-03-06T08:01:42.441Z,94935.20
2019-03-06T08:04:17.382Z,94940.73
2019-03-06T08:06:53.412Z,94939.48
2019-03-06T08:09:25.735Z,94940.62
2019-03-06T08:12:32.158Z,94937.82
2019-03-06T08:15:22.440Z,94935.84
2019-03-06T08:18:16.066Z,94938.92
2019-03-06T08:21:06.929Z,94937.20
2019-03-06T08:23:57.805Z,94941.37
2019-03-06T08:26:30.293Z,94934.91
2019-03-06T08:29:02.525Z,94931.34
2019-03-06T08:31:47.243Z,94939.72
2019-03-06T08:34:19.584Z,94935.19
2019-03-06T08:36:52.269Z,94929.20
2019-03-06T08:39:25.465Z,94940.39
2019-03-06T08:41:57.609Z,94948.72
2019-03-06T08:44:30.028Z,94951.55
2019-03-06T08:47:33.313Z,94950.84
2019-03-06T08:50:25.418Z,94956.51
2019-03-06T08:53:34.548Z,94957.55
2019-03-06T08:56:23.571Z,94954.09
2019-03-06T08:59:11.591Z,94955.70
2019-03-06T09:02:15.618Z,94950.50
2019-03-06T09:04:51.659Z,94956.80
2019-03-06T09:07:49.861Z,94955.20
2019-03-06T09:10:41.061Z,94951.70
2019-03-06T09:13:41.295Z,94956.98
2019-03-06T09:16:31.127Z,94958.67
2019-03-06T09:19:22.230Z,94966.44
2019-03-06T09:21:59.892Z,94963.01
2019-03-06T09:24:39.804Z,94957.22
2019-03-06T09:27:37.317Z,94965.98
2019-03-06T09:30:24.480Z,94964.13
2019-03-06T09:33:34.462Z,94968.55
2019-03-06T09:36:26.510Z,94964.88
2019-03-06T09:39:20.751Z,94964.59
2019-03-06T09:42:20.920Z,94968.99
2019-03-06T09:45:02.279Z,94966.17
2019-03-06T09:47:53.418Z,94964.91
2019-03-06T09:50:52.581Z,94966.23
2019-03-06T09:54:03.514Z,94968.83
2019-03-06T09:56:54.739Z,94963.16
2019-03-06T09:59:31.947Z,94950.95
2019-03-06T10:02:22.995Z,94950.96
2019-03-06T10:05:20.109Z,94942.20
2019-03-06T10:08:01.871Z,94948.45
2019-03-06T10:10:57.306Z,94942.48
2019-03-06T10:13:42.055Z,94946.20
2019-03-06T10:16:25.307Z,94949.57
2019-03-06T10:19:21.964Z,94959.99
2019-03-06T10:21:54.382Z,94954.54
2019-03-06T10:24:26.706Z,94955.05
2019-03-06T10:26:59.142Z,94948.64
2019-03-06T10:29:31.390Z,94953.63
2019-03-06T10:32:03.648Z,94950.55
2019-03-06T10:34:36.303Z,94934.55
2019-03-06T10:37:08.595Z,94940.94
2019-03-06T10:39:40.959Z,94929.02
2019-03-06T10:42:13.224Z,94940.00
2019-03-06T10:44:46.001Z,94939.09
2019-03-06T10:47:18.217Z,94930.63
2019-03-06T10:49:50.272Z,94935.05
2019-03-06T10:52:22.482Z,94930.25
2019-03-06T10:54:54.633Z,94929.77
2019-03-06T10:57:27.062Z,94915.02
2019-03-06T10:59:59.190Z,94920.69
2019-03-06T11:02:31.261Z,94916.19
2019-03-06T11:05:10.570Z,94918.31
2019-03-06T11:07:42.674Z,94923.64
2019-03-06T11:10:23.511Z,94919.77
2019-03-06T11:12:49.634Z,94911.33
2019-03-06T11:15:22.816Z,94913.22
2019-03-06T11:17:55.539Z,94913.23
2019-03-06T11:20:31.242Z,94912.83
2019-03-06T11:23:05.117Z,94913.53
2019-03-06T11:25:38.958Z,94909.17
2019-03-06T11:28:13.059Z,94912.45
2019-03-06T11:30:54.883Z,94917.87
2019-03-06T11:33:27.458Z,94917.13
2019-03-06T11:36:01.539Z,94913.20
2019-03-06T11:38:33.921Z,94920.61
2019-03-06T11:41:07.101Z,94909.09
2019-03-06T11:43:39.501Z,94916.67
2019-03-06T11:46:12.299Z,94907.42
2019-03-06T11:48:44.664Z,94913.58
2019-03-06T11:51:17.160Z,94894.53
2019-03-06T11:53:49.354Z,94909.99
2019-03-06T11:56:21.627Z,94899.59
2019-03-06T11:58:56.233Z,94903.05
2019-03-06T12:01:30.763Z,94909.70
2019-03-06T12:04:03.494Z,94903.79
2019-03-06T12:06:35.967Z,94908.41
2019-03-06T12:09:31.896Z,94909.05
2019-03-06T12:12:05.706Z,94915.13
2019-03-06T12:14:37.860Z,94911.98
2019-03-06T12:17:10.203Z,94908.31
2019-03-06T12:19:42.436Z,94914.30
2019-03-06T12:22:14.566Z,94905.55
2019-03-06T12:24:47.017Z,94899.91
2019-03-06T12:27:19.257Z,94907.50
2019-03-06T12:29:51.759Z,94905.88
2019-03-06T12:32:24.168Z,94897.00
2019-03-06T12:34:56.377Z,94896.95
2019-03-06T12:37:28.482Z,94904.14
2019-03-06T12:40:01.079Z,94903.55
2019-03-06T12:42:33.475Z,94906.38
2019-03-06T12:45:10.204Z,94912.73
2019-03-06T12:47:43.442Z,94908.45
2019-03-06T12:50:20.023Z,94910.53
2019-03-06T12:52:52.198Z,94915.30
2019-03-06T12:55:25.101Z,94920.30
2019-03-06T12:57:59.645Z,94917.16
2019-03-06T13:00:31.507Z,94918.91
2019-03-06T13:03:03.979Z,94914.41
2019-03-06T13:05:36.567Z,94924.45
2019-03-06T13:08:19.218Z,94913.64
2019-03-06T13:10:46.866Z,94919.91
2019-03-06T13:13:20.415Z,94913.64
2019-03-06T13:15:54.385Z,94915.41
2019-03-06T13:18:27.159Z,94916.03
2019-03-06T13:20:59.773Z,94909.52
2019-03-06T13:23:32.171Z,94911.43
2019-03-06T13:26:10.356Z,94914.83
2019-03-06T13:28:41.368Z,94914.11
2019-03-06T13:31:13.825Z,94911.72
2019-03-06T13:34:03.774Z,94909.87
2019-03-06T13:36:36.353Z,94908.38
2019-03-06T13:39:11.094Z,94912.06
2019-03-06T13:41:43.631Z,94919.42
2019-03-06T13:44:16.385Z,94914.36
2019-03-06T13:46:56.202Z,94914.86
2019-03-06T13:49:29.661Z,94917.45
2019-03-06T13:52:02.243Z,94907.36
2019-03-06T13:54:35.039Z,94912.56
2019-03-06T13:57:09.295Z,94913.75
2019-03-06T13:59:41.928Z,94919.14
2019-03-06T14:02:14.918Z,94924.00
2019-03-06T14:04:47.465Z,94919.31
2019-03-06T14:07:20.340Z,94915.75
2019-03-06T14:09:52.768Z,94920.89
2019-03-06T14:12:25.173Z,94916.86
2019-03-06T14:15:00.916Z,94917.05
2019-03-06T14:17:33.723Z,94911.97
2019-03-06T14:20:06.921Z,94914.09
2019-03-06T14:22:39.353Z,94920.30
2019-03-06T14:25:11.985Z,94920.58
2019-03-06T14:27:44.907Z,94924.33
2019-03-06T14:30:18.306Z,94922.17
2019-03-06T14:32:51.348Z,94916.87
2019-03-06T14:35:24.241Z,94916.87
2019-03-06T14:37:56.755Z,94916.22
2019-03-06T14:40:31.573Z,94928.17
2019-03-06T14:43:06.118Z,94926.00
2019-03-06T14:45:39.288Z,94927.27
2019-03-06T14:48:12.007Z,94931.48
2019-03-06T14:50:45.548Z,94924.30
2019-03-06T14:53:18.219Z,94921.35
2019-03-06T14:55:51.376Z,94924.16
2019-03-06T14:58:23.637Z,94922.84
2019-03-06T15:00:56.217Z,94927.19
2019-03-06T15:03:28.818Z,94924.03
2019-03-06T15:06:04.115Z,94924.80
2019-03-06T15:08:40.061Z,94928.90
2019-03-06T15:11:14.161Z,94926.20
2019-03-06T15:13:46.785Z,94926.98
2019-03-06T15:16:19.460Z,94928.12
2019-03-06T15:18:52.154Z,94932.59
2019-03-06T15:21:24.952Z,94940.56
2019-03-06T15:23:58.125Z,94947.48
2019-03-06T15:26:31.122Z,94952.73
2019-03-06T15:29:03.812Z,94953.73
2019-03-06T15:31:37.613Z,94961.08
2019-03-06T15:34:10.485Z,94964.13
2019-03-06T15:36:43.147Z,94970.17
2019-03-06T15:39:43.833Z,94972.24
2019-03-06T15:42:15.308Z,94966.36
2019-03-06T15:44:50.221Z,94965.06
2019-03-06T15:47:23.506Z,94965.48
2019-03-06T15:49:55.959Z,94966.52
2019-03-06T15:52:28.859Z,94973.98
2019-03-06T15:55:01.471Z,94974.31
2019-03-06T15:57:35.364Z,94972.26
2019-03-06T16:00:17.779Z,94975.72
2019-03-06T16:02:50.592Z,94979.87
2019-03-06T16:05:23.398Z,94979.73
2019-03-06T16:07:58.049Z,94981.86
2019-03-06T16:10:33.979Z,94990.23
2019-03-06T16:13:07.889Z,94993.70
2019-03-06T16:15:40.795Z,94997.88
2019-03-06T16:18:13.683Z,95004.16
2019-03-06T16:20:46.563Z,95005.73
2019-03-06T16:23:19.364Z,95008.99
2019-03-06T16:25:51.942Z,95005.36
2019-03-06T16:28:27.934Z,95009.05
2019-03-06T16:31:02.227Z,95008.42
2019-03-06T16:33:34.765Z,95010.67
2019-03-06T16:36:08.091Z,95008.38
2019-03-06T16:38:41.329Z,95019.56
2019-03-06T16:41:14.076Z,95017.71
2019-03-06T16:43:47.291Z,95023.56
2019-03-06T16:46:20.565Z,95023.44
2019-03-06T16:48:53.077Z,95026.77
2019-03-06T16:51:26.186Z,95030.27
2019-03-06T16:53:59.032Z,95037.73
2019-03-06T16:56:33.802Z,95029.72
2019-03-06T16:59:06.757Z,95034.69
2019-03-06T17:01:41.085Z,95036.68
2019-03-06T17:04:13.800Z,95046.54
2019-03-06T17:06:46.731Z,95052.77
2019-03-06T17:09:19.820Z,95048.03
2019-03-06T17:11:55.585Z,95049.27
2019-03-06T17:14:31.178Z,95056.22
2019-03-06T17:17:06.823Z,95060.69
2019-03-06T17:19:41.632Z,95073.86
2019-03-06T17:22:15.869Z,95074.19
2019-03-06T17:24:48.558Z,95078.77
2019-03-06T17:27:21.278Z,95075.94
2019-03-06T17:29:56.305Z,95079.72
2019-03-06T17:32:29.266Z,95073.99
2019-03-06T17:35:02.041Z,95089.76
2019-03-06T17:37:38.013Z,95089.15
2019-03-06T17:40:16.034Z,95083.90
2019-03-06T17:42:48.996Z,95084.99
2019-03-06T17:45:21.941Z,95087.63
2019-03-06T17:47:54.534Z,95088.88
2019-03-06T17:50:27.802Z,95092.57
2019-03-06T17:53:00.887Z,95094.81
2019-03-06T17:55:33.842Z,95092.48
2019-03-06T17:58:06.992Z,95101.78
2019-03-06T18:00:45.428Z,95095.70
2019-03-06T18:03:27.104Z,95095.75
2019-03-06T18:05:59.574Z,95090.00
2019-03-06T18:08:31.963Z,95089.75
2019-03-06T18:11:04.576Z,95097.38
2019-03-06T18:13:36.963Z,95099.48
2019-03-06T18:16:09.642Z,95101.29
2019-03-06T18:18:42.103Z,95104.80
2019-03-06T18:21:14.711Z,95108.26
2019-03-06T18:23:47.663Z,95111.48
2019-03-06T18:26:22.735Z,95115.00
2019-03-06T18:28:56.004Z,95117.07
2019-03-06T18:31:29.577Z,95109.13
2019-03-06T18:34:03.805Z,95111.16
2019-03-06T18:36:36.072Z,95111.45
2019-03-06T18:39:20.098Z,95108.32
2019-03-06T18:41:52.626Z,95106.24
2019-03-06T18:44:27.008Z,95110.13
2019-03-06T18:46:59.250Z,95103.23
2019-03-06T18:49:31.631Z,95109.92
2019-03-06T18:52:03.908Z,95110.95
2019-03-06T18:54:36.647Z,95109.64
2019-03-06T18:57:09.172Z,95112.08
2019-03-06T18:59:41.286Z,95119.66
2019-03-06T19:02:13.783Z,95115.95
2019-03-06T19:04:46.174Z,95119.22
2019-03-06T19:07:18.737Z,95120.59
2019-03-06T19:09:51.238Z,95112.28
2019-03-06T19:12:23.652Z,95117.19
2019-03-06T19:14:56.158Z,95112.05
2019-03-06T19:17:28.708Z,95112.40
2019-03-06T19:20:01.291Z,95104.12
2019-03-06T19:22:36.259Z,95104.25
2019-03-06T19:25:09.643Z,95102.95
2019-03-06T19:27:42.001Z,95103.48
2019-03-06T19:30:19.831Z,95110.53
2019-03-06T19:32:52.799Z,95118.72
2019-03-06T19:35:25.614Z,95124.77
2019-03-06T19:37:58.327Z,95131.98
2019-03-06T19:40:31.114Z,95131.83
2019-03-06T19:43:03.558Z,95133.72
2019-03-06T19:45:35.988Z,95141.76
2019-03-06T19:48:08.406Z,95146.95
2019-03-06T19:50:40.968Z,95145.94
2019-03-06T19:53:13.396Z,95136.25
2019-03-06T19:55:47.679Z,95137.55
2019-03-06T19:58:20.286Z,95143.33
2019-03-06T20:00:52.485Z,95143.30
2019-03-06T20:03:24.954Z,95143.55
2019-03-06T20:05:57.806Z,95150.41
2019-03-06T20:08:30.176Z,95156.84
2019-03-06T20:11:02.773Z,95157.48
2019-03-06T20:13:35.412Z,95157.78
2019-03-06T20:16:08.497Z,95166.27
2019-03-06T20:18:40.779Z,95177.30
2019-03-06T20:21:13.276Z,95180.84
2019-03-06T20:23:48.673Z,95183.57
2019-03-06T20:26:22.818Z,95182.80
2019-03-06T20:28:55.267Z,95179.44
2019-03-06T20:31:27.786Z,95189.44
2019-03-06T20:34:00.309Z,95184.69
2019-03-06T20:36:32.930Z,95189.98
2019-03-06T20:39:06.832Z,95190.83
2019-03-06T20:41:39.247Z,95199.68
2019-03-06T20:44:11.505Z,95201.17
2019-03-06T20:46:44.093Z,95202.73
2019-03-06T20:49:16.785Z,95200.45
2019-03-06T20:51:49.228Z,95204.39
2019-03-06T20:54:21.638Z,95208.31
2019-03-06T20:56:55.583Z,95211.75
2019-03-06T20:59:28.009Z,95214.25
2019-03-06T21:02:04.527Z,95214.87
2019-03-06T21:04:37.220Z,95211.00
2019-03-06T21:07:09.790Z,95204.49
2019-03-06T21:09:42.409Z,95200.30
2019-03-06T21:12:14.661Z,95202.95
2019-03-06T21:14:46.927Z,95207.63
2019-03-06T21:17:19.362Z,95204.73
2019-03-06T21:19:51.817Z,95210.03
2019-03-06T21:22:24.107Z,95217.16
2019-03-06T21:24:56.566Z,95220.02
2019-03-06T21:27:28.700Z,95210.74
2019-03-06T21:30:01.033Z,95206.03
2019-03-06T21:32:33.460Z,95205.92
2019-03-06T21:35:05.896Z,95201.30
2019-03-06T21:37:38.035Z,95205.16
2019-03-06T21:40:11.474Z,95199.37
2019-03-06T21:42:43.706Z,95197.09
2019-03-06T21:45:16.569Z,95194.02
2019-03-06T21:47:49.003Z,95199.52
2019-03-06T21:50:22.807Z,95206.77
2019-03-06T21:52:55.293Z,95200.55
2019-03-06T21:55:28.263Z,95206.53
2019-03-06T21:58:00.491Z,95206.77
2019-03-06T22:00:32.889Z,95210.06
2019-03-06T22:03:05.066Z,95209.38
2019-03-06T22:05:37.260Z,95213.16
2019-03-06T22:08:09.918Z,95210.61
2019-03-06T22:10:42.367Z,95205.93
2019-03-06T22:13:14.831Z,95205.22
2019-03-06T22:15:46.975Z,95212.61
2019-03-06T22:18:19.096Z,95207.04
2019-03-06T22:20:51.400Z,95207.66
2019-03-06T22:23:23.813Z,95209.55
2019-03-06T22:25:56.370Z,95214.31
2019-03-06T22:28:28.792Z,95218.07
2019-03-06T22:31:01.250Z,95211.73
2019-03-06T22:33:33.702Z,95211.59
2019-03-06T22:36:06.205Z,95214.15
2019-03-06T22:38:38.228Z,95214.91
2019-03-06T22:41:10.577Z,95215.69
2019-03-06T22:43:42.653Z,95204.62
2019-03-06T22:46:14.703Z,95210.75
2019-03-06T22:48:46.835Z,95213.13
2019-03-06T22:51:18.930Z,95204.66
2019-03-06T22:53:51.541Z,95212.38
2019-03-06T22:56:23.933Z,95211.34
2019-03-06T22:58:55.982Z,95205.33
2019-03-06T23:01:37.323Z,95204.34
2019-03-06T23:04:09.938Z,95205.28
2019-03-06T23:06:41.876Z,95200.30
2019-03-06T23:09:14.576Z,95205.61
2019-03-06T23:11:46.859Z,95205.70
2019-03-06T23:14:18.983Z,95204.38
2019-03-06T23:16:52.379Z,95200.60
2019-03-06T23:19:24.493Z,95196.31
2019-03-06T23:21:56.467Z,95203.27
2019-03-06T23:24:28.563Z,95202.80
2019-03-06T23:27:00.562Z,95193.63
2019-03-06T23:29:32.680Z,95194.19
2019-03-06T23:32:04.789Z,95187.84
2019-03-06T23:34:36.881Z,95192.48
2019-03-06T23:37:09.246Z,95193.00
2019-03-06T23:39:41.846Z,95192.14
2019-03-06T23:42:14.157Z,95196.05
2019-03-06T23:44:46.480Z,95189.32
2019-03-06T23:47:18.558Z,95197.06
2019-03-06T23:49:50.691Z,95197.48
2019-03-06T23:52:27.979Z,95200.64
2019-03-06T23:55:00.009Z,95194.63
2019-03-06T23:57:32.081Z,95203.89
